sensor_id;sensor_type;location;lat;lon;timestamp;temperature;humidity
4934;DHT22;2482;49.154;8.254;2022-11-28T00:04:10;4.70;99.90
4934;DHT22;2482;49.154;8.254;2022-11-28T00:06:41;4.70;99.90
4934;DHT22;2482;49.154;8.254;2022-11-28T00:09:15;4.70;99.90
4934;DHT22;2482;49.154;8.254;2022-11-28T00:11:47;4.60;99.90
4934;DHT22;2482;49.154;8.254;2022-11-28T00:14:18;4.50;99.90
4934;DHT22;2482;49.154;8.254;2022-11-28T00:16:46;4.80;99.90
4934;DHT22;2482;49.154;8.254;2022-11-28T00:19:13;4.70;99.90
4934;DHT22;2482;49.154;8.254;2022-11-28T00:21:40;4.40;99.90
4934;DHT22;2482;49.154;8.254;2022-11-28T00:24:08;4.60;99.90
4934;DHT22;2482;49.154;8.254;2022-11-28T00:26:38;4.70;99.90
4934;DHT22;2482;49.154;8.254;2022-11-28T00:29:07;4.60;99.90
4934;DHT22;2482;49.154;8.254;2022-11-28T00:31:39;4.70;99.90
4934;DHT22;2482;49.154;8.254;2022-11-28T00:34:11;4.70;99.90
4934;DHT22;2482;49.154;8.254;2022-11-28T00:36:38;4.90;99.90
4934;DHT22;2482;49.154;8.254;2022-11-28T00:39:06;4.90;99.90
4934;DHT22;2482;49.154;8.254;2022-11-28T00:41:32;4.80;99.90
4934;DHT22;2482;49.154;8.254;2022-11-28T00:44:01;4.90;99.90
4934;DHT22;2482;49.154;8.254;2022-11-28T00:46:28;4.70;99.90
4934;DHT22;2482;49.154;8.254;2022-11-28T00:48:57;4.90;99.90
4934;DHT22;2482;49.154;8.254;2022-11-28T00:51:27;4.40;99.90
4934;DHT22;2482;49.154;8.254;2022-11-28T00:53:56;4.40;99.90
4934;DHT22;2482;49.154;8.254;2022-11-28T00:56:28;4.50;99.90
4934;DHT22;2482;49.154;8.254;2022-11-28T00:58:57;4.70;99.90
4934;DHT22;2482;49.154;8.254;2022-11-28T01:01:41;4.60;99.90
4934;DHT22;2482;49.154;8.254;2022-11-28T01:04:14;4.70;99.90
4934;DHT22;2482;49.154;8.254;2022-11-28T01:06:48;4.70;99.90
4934;DHT22;2482;49.154;8.254;2022-11-28T01:09:19;4.80;99.90
4934;DHT22;2482;49.154;8.254;2022-11-28T01:11:48;4.70;99.90
4934;DHT22;2482;49.154;8.254;2022-11-28T01:14:22;4.70;99.90
4934;DHT22;2482;49.154;8.254;2022-11-28T01:16:50;4.70;99.90
4934;DHT22;2482;49.154;8.254;2022-11-28T01:19:18;4.70;99.90
4934;DHT22;2482;49.154;8.254;2022-11-28T01:21:45;4.50;99.90
4934;DHT22;2482;49.154;8.254;2022-11-28T01:24:14;4.70;99.90
4934;DHT22;2482;49.154;8.254;2022-11-28T01:26:42;4.70;99.90
4934;DHT22;2482;49.154;8.254;2022-11-28T01:29:09;4.80;99.90
4934;DHT22;2482;49.154;8.254;2022-11-28T01:31:36;4.80;99.90
4934;DHT22;2482;49.154;8.254;2022-11-28T01:34:04;4.70;99.90
4934;DHT22;2482;49.154;8.254;2022-11-28T01:36:31;4.80;99.90
4934;DHT22;2482;49.154;8.254;2022-11-28T01:38:58;4.80;99.90
4934;DHT22;2482;49.154;8.254;2022-11-28T01:41:26;4.70;99.90
4934;DHT22;2482;49.154;8.254;2022-11-28T01:46:34;4.70;99.90
4934;DHT22;2482;49.154;8.254;2022-11-28T01:51:57;4.50;99.90
4934;DHT22;2482;49.154;8.254;2022-11-28T01:54:28;4.50;99.90
4934;DHT22;2482;49.154;8.254;2022-11-28T01:57:03;4.50;99.90
4934;DHT22;2482;49.154;8.254;2022-11-28T01:59:39;4.60;99.90
4934;DHT22;2482;49.154;8.254;2022-11-28T02:02:14;4.70;99.90
4934;DHT22;2482;49.154;8.254;2022-11-28T02:04:45;4.60;99.90
4934;DHT22;2482;49.154;8.254;2022-11-28T02:07:13;4.50;99.90
4934;DHT22;2482;49.154;8.254;2022-11-28T02:09:40;4.50;99.90
4934;DHT22;2482;49.154;8.254;2022-11-28T02:32:59;4.30;99.90
4934;DHT22;2482;49.154;8.254;2022-11-28T02:35:54;4.30;99.90
4934;DHT22;2482;49.154;8.254;2022-11-28T02:41:38;4.20;99.90
4934;DHT22;2482;49.154;8.254;2022-11-28T02:44:23;4.20;99.90
4934;DHT22;2482;49.154;8.254;2022-11-28T02:47:05;4.40;99.90
4934;DHT22;2482;49.154;8.254;2022-11-28T02:49:48;4.40;99.90
4934;DHT22;2482;49.154;8.254;2022-11-28T02:52:44;4.20;99.90
4934;DHT22;2482;49.154;8.254;2022-11-28T02:55:14;4.20;99.90
4934;DHT22;2482;49.154;8.254;2022-11-28T02:57:50;4.10;99.90
4934;DHT22;2482;49.154;8.254;2022-11-28T03:00:31;3.90;99.90
4934;DHT22;2482;49.154;8.254;2022-11-28T03:03:07;3.90;99.90
4934;DHT22;2482;49.154;8.254;2022-11-28T03:12:24;4.20;99.90
4934;DHT22;2482;49.154;8.254;2022-11-28T03:15:00;4.00;99.90
4934;DHT22;2482;49.154;8.254;2022-11-28T03:18:08;4.30;99.90
4934;DHT22;2482;49.154;8.254;2022-11-28T03:23:52;4.20;99.90
4934;DHT22;2482;49.154;8.254;2022-11-28T03:29:38;4.10;99.90
4934;DHT22;2482;49.154;8.254;2022-11-28T03:32:10;4.00;99.90
4934;DHT22;2482;49.154;8.254;2022-11-28T03:34:45;3.80;99.90
4934;DHT22;2482;49.154;8.254;2022-11-28T03:37:38;3.80;99.90
4934;DHT22;2482;49.154;8.254;2022-11-28T03:40:07;3.90;99.90
4934;DHT22;2482;49.154;8.254;2022-11-28T03:42:42;3.70;99.90
4934;DHT22;2482;49.154;8.254;2022-11-28T03:45:17;3.60;99.90
4934;DHT22;2482;49.154;8.254;2022-11-28T03:48:01;3.60;99.90
4934;DHT22;2482;49.154;8.254;2022-11-28T03:50:44;3.70;99.90
4934;DHT22;2482;49.154;8.254;2022-11-28T03:54:18;3.60;99.90
4934;DHT22;2482;49.154;8.254;2022-11-28T03:59:35;3.70;99.90
4934;DHT22;2482;49.154;8.254;2022-11-28T04:04:57;3.80;99.90
4934;DHT22;2482;49.154;8.254;2022-11-28T04:08:19;3.80;99.90
4934;DHT22;2482;49.154;8.254;2022-11-28T04:11:21;3.80;99.90
4934;DHT22;2482;49.154;8.254;2022-11-28T04:13:59;3.70;99.90
4934;DHT22;2482;49.154;8.254;2022-11-28T04:16:35;3.70;99.90
4934;DHT22;2482;49.154;8.254;2022-11-28T04:24:14;3.80;99.90
4934;DHT22;2482;49.154;8.254;2022-11-28T04:26:47;3.70;99.90
4934;DHT22;2482;49.154;8.254;2022-11-28T04:29:19;3.50;99.90
4934;DHT22;2482;49.154;8.254;2022-11-28T04:31:49;3.60;99.90
4934;DHT22;2482;49.154;8.254;2022-11-28T04:34:20;3.70;99.90
4934;DHT22;2482;49.154;8.254;2022-11-28T04:36:50;3.60;99.90
4934;DHT22;2482;49.154;8.254;2022-11-28T04:39:22;3.70;99.90
4934;DHT22;2482;49.154;8.254;2022-11-28T04:41:59;3.90;99.90
4934;DHT22;2482;49.154;8.254;2022-11-28T04:44:55;4.00;99.90
4934;DHT22;2482;49.154;8.254;2022-11-28T04:47:25;3.80;99.90
4934;DHT22;2482;49.154;8.254;2022-11-28T04:49:53;3.90;99.90
4934;DHT22;2482;49.154;8.254;2022-11-28T04:52:40;3.80;99.90
4934;DHT22;2482;49.154;8.254;2022-11-28T04:55:44;3.70;99.90
4934;DHT22;2482;49.154;8.254;2022-11-28T04:58:20;3.80;99.90
4934;DHT22;2482;49.154;8.254;2022-11-28T05:00:51;3.80;99.90
4934;DHT22;2482;49.154;8.254;2022-11-28T05:03:20;4.00;99.90
4934;DHT22;2482;49.154;8.254;2022-11-28T05:05:49;3.90;99.90
4934;DHT22;2482;49.154;8.254;2022-11-28T05:08:17;3.80;99.90
4934;DHT22;2482;49.154;8.254;2022-11-28T05:10:45;3.70;99.90
4934;DHT22;2482;49.154;8.254;2022-11-28T05:13:12;3.80;99.90
4934;DHT22;2482;49.154;8.254;2022-11-28T05:15:39;3.60;99.90
4934;DHT22;2482;49.154;8.254;2022-11-28T05:18:06;3.50;99.90
4934;DHT22;2482;49.154;8.254;2022-11-28T05:20:33;3.70;99.90
4934;DHT22;2482;49.154;8.254;2022-11-28T05:23:00;3.60;99.90
4934;DHT22;2482;49.154;8.254;2022-11-28T05:25:27;3.60;99.90
4934;DHT22;2482;49.154;8.254;2022-11-28T05:27:54;3.60;99.90
4934;DHT22;2482;49.154;8.254;2022-11-28T05:30:22;3.80;99.90
4934;DHT22;2482;49.154;8.254;2022-11-28T05:32:48;3.90;99.90
4934;DHT22;2482;49.154;8.254;2022-11-28T05:35:16;3.60;99.90
4934;DHT22;2482;49.154;8.254;2022-11-28T05:37:43;3.70;99.90
4934;DHT22;2482;49.154;8.254;2022-11-28T05:40:10;3.60;99.90
4934;DHT22;2482;49.154;8.254;2022-11-28T05:42:37;3.60;99.90
4934;DHT22;2482;49.154;8.254;2022-11-28T05:45:05;3.60;99.90
4934;DHT22;2482;49.154;8.254;2022-11-28T05:47:32;3.50;99.90
4934;DHT22;2482;49.154;8.254;2022-11-28T05:49:59;3.50;99.90
4934;DHT22;2482;49.154;8.254;2022-11-28T05:52:28;3.50;99.90
4934;DHT22;2482;49.154;8.254;2022-11-28T05:54:55;3.60;99.90
4934;DHT22;2482;49.154;8.254;2022-11-28T05:57:23;3.40;99.90
4934;DHT22;2482;49.154;8.254;2022-11-28T05:59:50;3.50;99.90
4934;DHT22;2482;49.154;8.254;2022-11-28T06:02:17;3.60;99.90
4934;DHT22;2482;49.154;8.254;2022-11-28T06:04:45;3.60;99.90
4934;DHT22;2482;49.154;8.254;2022-11-28T06:07:12;3.80;99.90
4934;DHT22;2482;49.154;8.254;2022-11-28T06:09:39;3.60;99.90
4934;DHT22;2482;49.154;8.254;2022-11-28T06:12:07;3.70;99.90
4934;DHT22;2482;49.154;8.254;2022-11-28T06:14:34;3.70;99.90
4934;DHT22;2482;49.154;8.254;2022-11-28T06:17:01;3.80;99.90
4934;DHT22;2482;49.154;8.254;2022-11-28T06:19:28;3.70;99.90
4934;DHT22;2482;49.154;8.254;2022-11-28T06:21:55;3.70;99.90
4934;DHT22;2482;49.154;8.254;2022-11-28T06:24:23;4.00;99.90
4934;DHT22;2482;49.154;8.254;2022-11-28T06:26:50;3.90;99.90
4934;DHT22;2482;49.154;8.254;2022-11-28T06:29:17;4.00;99.90
4934;DHT22;2482;49.154;8.254;2022-11-28T06:31:44;4.00;99.90
4934;DHT22;2482;49.154;8.254;2022-11-28T06:34:11;4.20;99.90
4934;DHT22;2482;49.154;8.254;2022-11-28T06:36:39;4.10;99.90
4934;DHT22;2482;49.154;8.254;2022-11-28T06:39:06;4.00;99.90
4934;DHT22;2482;49.154;8.254;2022-11-28T06:41:33;4.00;99.90
4934;DHT22;2482;49.154;8.254;2022-11-28T06:44:01;4.00;99.90
4934;DHT22;2482;49.154;8.254;2022-11-28T06:46:28;3.90;99.90
4934;DHT22;2482;49.154;8.254;2022-11-28T06:48:56;3.80;99.90
4934;DHT22;2482;49.154;8.254;2022-11-28T06:51:23;3.90;99.90
4934;DHT22;2482;49.154;8.254;2022-11-28T06:53:50;4.10;99.90
4934;DHT22;2482;49.154;8.254;2022-11-28T06:56:18;3.90;99.90
4934;DHT22;2482;49.154;8.254;2022-11-28T06:58:47;3.90;99.90
4934;DHT22;2482;49.154;8.254;2022-11-28T07:01:22;4.10;99.90
4934;DHT22;2482;49.154;8.254;2022-11-28T07:03:50;4.10;99.90
4934;DHT22;2482;49.154;8.254;2022-11-28T07:06:20;4.00;99.90
4934;DHT22;2482;49.154;8.254;2022-11-28T07:08:49;4.10;99.90
4934;DHT22;2482;49.154;8.254;2022-11-28T07:11:19;4.20;99.90
4934;DHT22;2482;49.154;8.254;2022-11-28T07:13:49;4.00;99.90
4934;DHT22;2482;49.154;8.254;2022-11-28T07:16:22;4.00;99.90
4934;DHT22;2482;49.154;8.254;2022-11-28T07:18:54;4.00;99.90
4934;DHT22;2482;49.154;8.254;2022-11-28T07:21:21;4.00;99.90
4934;DHT22;2482;49.154;8.254;2022-11-28T07:23:49;4.00;99.90
4934;DHT22;2482;49.154;8.254;2022-11-28T07:26:17;4.00;99.90
4934;DHT22;2482;49.154;8.254;2022-11-28T07:28:47;4.10;99.90
4934;DHT22;2482;49.154;8.254;2022-11-28T07:31:21;4.00;99.90
4934;DHT22;2482;49.154;8.254;2022-11-28T07:33:51;4.10;99.90
4934;DHT22;2482;49.154;8.254;2022-11-28T07:36:19;4.30;99.90
4934;DHT22;2482;49.154;8.254;2022-11-28T07:38:50;4.20;99.90
4934;DHT22;2482;49.154;8.254;2022-11-28T07:41:19;4.20;99.90
4934;DHT22;2482;49.154;8.254;2022-11-28T07:43:57;4.30;99.90
4934;DHT22;2482;49.154;8.254;2022-11-28T07:46:27;4.50;99.90
4934;DHT22;2482;49.154;8.254;2022-11-28T07:48:56;4.60;99.90
4934;DHT22;2482;49.154;8.254;2022-11-28T07:51:28;4.80;99.90
4934;DHT22;2482;49.154;8.254;2022-11-28T07:53:57;4.80;99.90
4934;DHT22;2482;49.154;8.254;2022-11-28T07:56:30;4.60;99.90
4934;DHT22;2482;49.154;8.254;2022-11-28T07:59:19;4.60;99.90
4934;DHT22;2482;49.154;8.254;2022-11-28T08:01:46;4.60;99.90
4934;DHT22;2482;49.154;8.254;2022-11-28T08:04:14;4.70;99.90
4934;DHT22;2482;49.154;8.254;2022-11-28T08:06:41;4.60;99.90
4934;DHT22;2482;49.154;8.254;2022-11-28T08:09:10;4.70;99.90
4934;DHT22;2482;49.154;8.254;2022-11-28T08:11:41;4.80;99.90
4934;DHT22;2482;49.154;8.254;2022-11-28T08:14:08;4.80;99.90
4934;DHT22;2482;49.154;8.254;2022-11-28T08:16:35;4.70;99.90
4934;DHT22;2482;49.154;8.254;2022-11-28T08:19:03;4.50;99.90
4934;DHT22;2482;49.154;8.254;2022-11-28T08:21:31;4.60;99.90
4934;DHT22;2482;49.154;8.254;2022-11-28T08:24:00;4.70;99.90
4934;DHT22;2482;49.154;8.254;2022-11-28T08:26:28;4.70;99.90
4934;DHT22;2482;49.154;8.254;2022-11-28T08:28:58;4.90;99.90
4934;DHT22;2482;49.154;8.254;2022-11-28T08:31:28;4.80;99.90
4934;DHT22;2482;49.154;8.254;2022-11-28T08:33:58;5.00;99.90
4934;DHT22;2482;49.154;8.254;2022-11-28T08:36:26;4.90;99.90
4934;DHT22;2482;49.154;8.254;2022-11-28T08:38:55;4.90;99.90
4934;DHT22;2482;49.154;8.254;2022-11-28T08:41:44;4.80;99.90
4934;DHT22;2482;49.154;8.254;2022-11-28T08:44:12;4.90;99.90
4934;DHT22;2482;49.154;8.254;2022-11-28T08:46:39;4.80;99.90
4934;DHT22;2482;49.154;8.254;2022-11-28T08:49:06;5.00;99.90
4934;DHT22;2482;49.154;8.254;2022-11-28T08:51:33;4.90;99.90
4934;DHT22;2482;49.154;8.254;2022-11-28T08:54:00;5.00;99.90
4934;DHT22;2482;49.154;8.254;2022-11-28T08:56:27;5.30;99.90
4934;DHT22;2482;49.154;8.254;2022-11-28T08:58:55;5.30;99.90
4934;DHT22;2482;49.154;8.254;2022-11-28T09:01:24;5.40;99.90
4934;DHT22;2482;49.154;8.254;2022-11-28T09:03:52;5.30;99.90
4934;DHT22;2482;49.154;8.254;2022-11-28T09:06:21;5.30;99.90
4934;DHT22;2482;49.154;8.254;2022-11-28T09:08:49;5.40;99.90
4934;DHT22;2482;49.154;8.254;2022-11-28T09:11:19;5.20;99.90
4934;DHT22;2482;49.154;8.254;2022-11-28T09:13:46;5.30;99.90
4934;DHT22;2482;49.154;8.254;2022-11-28T09:16:14;5.30;99.90
4934;DHT22;2482;49.154;8.254;2022-11-28T09:18:41;5.50;99.90
4934;DHT22;2482;49.154;8.254;2022-11-28T09:21:11;5.50;99.90
4934;DHT22;2482;49.154;8.254;2022-11-28T09:23:41;5.30;99.90
4934;DHT22;2482;49.154;8.254;2022-11-28T09:26:17;5.20;99.90
4934;DHT22;2482;49.154;8.254;2022-11-28T09:28:46;5.50;99.90
4934;DHT22;2482;49.154;8.254;2022-11-28T09:31:15;5.70;99.90
4934;DHT22;2482;49.154;8.254;2022-11-28T09:33:43;5.80;99.90
4934;DHT22;2482;49.154;8.254;2022-11-28T09:36:16;5.70;99.90
4934;DHT22;2482;49.154;8.254;2022-11-28T09:38:45;5.70;99.90
4934;DHT22;2482;49.154;8.254;2022-11-28T09:46:59;5.80;99.90
4934;DHT22;2482;49.154;8.254;2022-11-28T09:49:40;5.90;99.90
4934;DHT22;2482;49.154;8.254;2022-11-28T09:55:14;6.00;99.90
4934;DHT22;2482;49.154;8.254;2022-11-28T09:57:49;6.00;99.90
4934;DHT22;2482;49.154;8.254;2022-11-28T10:05:42;6.40;99.90
4934;DHT22;2482;49.154;8.254;2022-11-28T10:11:08;6.40;99.90
4934;DHT22;2482;49.154;8.254;2022-11-28T10:16:54;6.70;99.90
4934;DHT22;2482;49.154;8.254;2022-11-28T10:19:45;6.50;99.90
4934;DHT22;2482;49.154;8.254;2022-11-28T10:22:49;6.60;99.90
4934;DHT22;2482;49.154;8.254;2022-11-28T10:25:25;6.90;99.90
4934;DHT22;2482;49.154;8.254;2022-11-28T10:28:18;6.70;99.90
4934;DHT22;2482;49.154;8.254;2022-11-28T10:31:11;6.50;99.90
4934;DHT22;2482;49.154;8.254;2022-11-28T10:34:36;6.60;99.90
4934;DHT22;2482;49.154;8.254;2022-11-28T10:39:36;7.00;99.90
4934;DHT22;2482;49.154;8.254;2022-11-28T10:51:33;7.00;99.90
4934;DHT22;2482;49.154;8.254;2022-11-28T11:00:34;7.10;99.90
4934;DHT22;2482;49.154;8.254;2022-11-28T11:03:03;7.20;99.90
4934;DHT22;2482;49.154;8.254;2022-11-28T11:05:35;7.30;99.90
4934;DHT22;2482;49.154;8.254;2022-11-28T11:16:53;7.70;99.90
4934;DHT22;2482;49.154;8.254;2022-11-28T11:19:48;7.60;99.90
4934;DHT22;2482;49.154;8.254;2022-11-28T11:22:24;7.50;99.90
4934;DHT22;2482;49.154;8.254;2022-11-28T11:25:24;7.70;99.90
4934;DHT22;2482;49.154;8.254;2022-11-28T11:27:58;7.80;99.90
4934;DHT22;2482;49.154;8.254;2022-11-28T11:30:37;7.80;99.90
4934;DHT22;2482;49.154;8.254;2022-11-28T11:33:14;7.80;99.90
4934;DHT22;2482;49.154;8.254;2022-11-28T11:35:44;7.90;99.90
4934;DHT22;2482;49.154;8.254;2022-11-28T11:40:48;8.20;99.90
4934;DHT22;2482;49.154;8.254;2022-11-28T11:46:11;7.80;99.90
4934;DHT22;2482;49.154;8.254;2022-11-28T11:48:42;8.00;99.90
4934;DHT22;2482;49.154;8.254;2022-11-28T11:51:30;8.40;99.90
4934;DHT22;2482;49.154;8.254;2022-11-28T11:54:14;8.30;99.90
4934;DHT22;2482;49.154;8.254;2022-11-28T11:56:46;8.30;99.90
4934;DHT22;2482;49.154;8.254;2022-11-28T12:05:03;8.80;99.90
4934;DHT22;2482;49.154;8.254;2022-11-28T12:07:47;8.70;99.90
4934;DHT22;2482;49.154;8.254;2022-11-28T12:10:21;8.60;99.90
4934;DHT22;2482;49.154;8.254;2022-11-28T12:12:51;8.70;99.90
4934;DHT22;2482;49.154;8.254;2022-11-28T12:22:15;8.80;99.90
4934;DHT22;2482;49.154;8.254;2022-11-28T12:25:10;8.80;99.90
4934;DHT22;2482;49.154;8.254;2022-11-28T12:31:31;8.80;99.90
4934;DHT22;2482;49.154;8.254;2022-11-28T12:58:07;8.80;99.90
4934;DHT22;2482;49.154;8.254;2022-11-28T13:35:39;9.10;99.90
4934;DHT22;2482;49.154;8.254;2022-11-28T13:38:14;9.10;99.90
4934;DHT22;2482;49.154;8.254;2022-11-28T13:41:53;9.10;99.90
4934;DHT22;2482;49.154;8.254;2022-11-28T13:47:31;8.90;99.90
4934;DHT22;2482;49.154;8.254;2022-11-28T13:58:54;8.80;99.90
4934;DHT22;2482;49.154;8.254;2022-11-28T14:01:28;8.80;99.90
4934;DHT22;2482;49.154;8.254;2022-11-28T14:06:42;8.80;99.90
4934;DHT22;2482;49.154;8.254;2022-11-28T14:23:19;9.30;99.90
4934;DHT22;2482;49.154;8.254;2022-11-28T14:25:50;9.00;99.90
4934;DHT22;2482;49.154;8.254;2022-11-28T14:28:30;8.90;99.90
4934;DHT22;2482;49.154;8.254;2022-11-28T14:31:28;8.70;99.90
4934;DHT22;2482;49.154;8.254;2022-11-28T14:34:00;8.50;99.90
4934;DHT22;2482;49.154;8.254;2022-11-28T14:36:31;8.40;99.90
4934;DHT22;2482;49.154;8.254;2022-11-28T14:44:51;8.40;99.90
4934;DHT22;2482;49.154;8.254;2022-11-28T14:47:32;8.30;99.90
4934;DHT22;2482;49.154;8.254;2022-11-28T14:52:32;8.40;99.90
4934;DHT22;2482;49.154;8.254;2022-11-28T14:55:21;8.40;99.90
4934;DHT22;2482;49.154;8.254;2022-11-28T14:57:55;8.30;99.90
4934;DHT22;2482;49.154;8.254;2022-11-28T15:00:37;8.20;99.90
4934;DHT22;2482;49.154;8.254;2022-11-28T15:03:39;8.20;99.90
4934;DHT22;2482;49.154;8.254;2022-11-28T15:06:20;8.20;99.90
4934;DHT22;2482;49.154;8.254;2022-11-28T15:14:37;8.50;99.90
4934;DHT22;2482;49.154;8.254;2022-11-28T15:17:09;8.40;99.90
4934;DHT22;2482;49.154;8.254;2022-11-28T15:19:42;8.30;99.90
4934;DHT22;2482;49.154;8.254;2022-11-28T15:22:40;8.30;99.90
4934;DHT22;2482;49.154;8.254;2022-11-28T15:27:49;8.00;99.90
4934;DHT22;2482;49.154;8.254;2022-11-28T15:30:21;8.00;99.90
4934;DHT22;2482;49.154;8.254;2022-11-28T15:32:58;7.90;99.90
4934;DHT22;2482;49.154;8.254;2022-11-28T15:35:26;7.90;99.90
4934;DHT22;2482;49.154;8.254;2022-11-28T15:37:56;7.90;99.90
4934;DHT22;2482;49.154;8.254;2022-11-28T15:40:30;7.80;99.90
4934;DHT22;2482;49.154;8.254;2022-11-28T15:43:00;7.90;99.90
4934;DHT22;2482;49.154;8.254;2022-11-28T15:45:35;7.80;99.90
4934;DHT22;2482;49.154;8.254;2022-11-28T15:48:02;7.80;99.90
4934;DHT22;2482;49.154;8.254;2022-11-28T15:50:34;7.80;99.90
4934;DHT22;2482;49.154;8.254;2022-11-28T15:53:16;7.80;99.90
4934;DHT22;2482;49.154;8.254;2022-11-28T15:55:45;7.80;99.90
4934;DHT22;2482;49.154;8.254;2022-11-28T15:58:20;7.70;99.90
4934;DHT22;2482;49.154;8.254;2022-11-28T16:00:58;7.60;99.90
4934;DHT22;2482;49.154;8.254;2022-11-28T16:03:34;7.60;99.90
4934;DHT22;2482;49.154;8.254;2022-11-28T16:06:07;7.60;99.90
4934;DHT22;2482;49.154;8.254;2022-11-28T16:08:36;7.70;99.90
4934;DHT22;2482;49.154;8.254;2022-11-28T16:11:07;7.60;99.90
4934;DHT22;2482;49.154;8.254;2022-11-28T16:13:37;7.60;99.90
4934;DHT22;2482;49.154;8.254;2022-11-28T16:16:11;7.50;99.90
4934;DHT22;2482;49.154;8.254;2022-11-28T16:18:44;7.60;99.90
4934;DHT22;2482;49.154;8.254;2022-11-28T16:21:14;7.50;99.90
4934;DHT22;2482;49.154;8.254;2022-11-28T16:23:41;7.50;99.90
4934;DHT22;2482;49.154;8.254;2022-11-28T16:26:35;7.50;99.90
4934;DHT22;2482;49.154;8.254;2022-11-28T16:29:11;7.50;99.90
4934;DHT22;2482;49.154;8.254;2022-11-28T16:31:41;7.60;99.90
4934;DHT22;2482;49.154;8.254;2022-11-28T16:34:13;7.50;99.90
4934;DHT22;2482;49.154;8.254;2022-11-28T16:36:41;7.50;99.90
4934;DHT22;2482;49.154;8.254;2022-11-28T16:39:14;7.50;99.90
4934;DHT22;2482;49.154;8.254;2022-11-28T16:42:25;7.50;99.90
4934;DHT22;2482;49.154;8.254;2022-11-28T16:44:37;7.50;99.90
4934;DHT22;2482;49.154;8.254;2022-11-28T16:47:04;7.70;99.90
4934;DHT22;2482;49.154;8.254;2022-11-28T16:49:40;7.60;99.90
4934;DHT22;2482;49.154;8.254;2022-11-28T16:54:53;7.50;99.90
4934;DHT22;2482;49.154;8.254;2022-11-28T16:57:21;7.50;99.90
4934;DHT22;2482;49.154;8.254;2022-11-28T16:59:53;7.50;99.90
4934;DHT22;2482;49.154;8.254;2022-11-28T17:02:22;7.50;99.90
4934;DHT22;2482;49.154;8.254;2022-11-28T17:04:51;7.50;99.90
4934;DHT22;2482;49.154;8.254;2022-11-28T17:07:21;7.50;99.90
4934;DHT22;2482;49.154;8.254;2022-11-28T17:09:49;7.50;99.90
4934;DHT22;2482;49.154;8.254;2022-11-28T17:12:26;7.60;99.90
4934;DHT22;2482;49.154;8.254;2022-11-28T17:15:06;7.80;99.90
4934;DHT22;2482;49.154;8.254;2022-11-28T17:17:40;7.70;99.90
4934;DHT22;2482;49.154;8.254;2022-11-28T17:20:07;7.60;99.90
4934;DHT22;2482;49.154;8.254;2022-11-28T17:22:43;7.60;99.90
4934;DHT22;2482;49.154;8.254;2022-11-28T17:25:19;7.60;99.90
4934;DHT22;2482;49.154;8.254;2022-11-28T17:27:46;7.50;99.90
4934;DHT22;2482;49.154;8.254;2022-11-28T17:30:17;7.60;99.90
4934;DHT22;2482;49.154;8.254;2022-11-28T17:32:44;7.70;99.90
4934;DHT22;2482;49.154;8.254;2022-11-28T17:35:21;7.70;99.90
4934;DHT22;2482;49.154;8.254;2022-11-28T17:37:49;7.70;99.90
4934;DHT22;2482;49.154;8.254;2022-11-28T17:40:16;7.60;99.90
4934;DHT22;2482;49.154;8.254;2022-11-28T17:42:59;7.60;99.90
4934;DHT22;2482;49.154;8.254;2022-11-28T17:45:27;7.60;99.90
4934;DHT22;2482;49.154;8.254;2022-11-28T17:47:56;7.60;99.90
4934;DHT22;2482;49.154;8.254;2022-11-28T17:50:23;7.70;99.90
4934;DHT22;2482;49.154;8.254;2022-11-28T17:52:50;7.70;99.90
4934;DHT22;2482;49.154;8.254;2022-11-28T17:55:17;7.60;99.90
4934;DHT22;2482;49.154;8.254;2022-11-28T17:57:46;7.70;99.90
4934;DHT22;2482;49.154;8.254;2022-11-28T18:00:13;7.80;99.90
4934;DHT22;2482;49.154;8.254;2022-11-28T18:02:41;7.80;99.90
4934;DHT22;2482;49.154;8.254;2022-11-28T18:05:08;7.70;99.90
4934;DHT22;2482;49.154;8.254;2022-11-28T18:07:35;7.80;99.90
4934;DHT22;2482;49.154;8.254;2022-11-28T18:10:02;7.70;99.90
4934;DHT22;2482;49.154;8.254;2022-11-28T18:12:30;7.80;99.90
4934;DHT22;2482;49.154;8.254;2022-11-28T18:14:57;7.80;99.90
4934;DHT22;2482;49.154;8.254;2022-11-28T18:17:26;7.80;99.90
4934;DHT22;2482;49.154;8.254;2022-11-28T18:19:53;7.70;99.90
4934;DHT22;2482;49.154;8.254;2022-11-28T18:22:23;7.80;99.90
4934;DHT22;2482;49.154;8.254;2022-11-28T18:24:50;7.70;99.90
4934;DHT22;2482;49.154;8.254;2022-11-28T18:27:17;7.60;99.90
4934;DHT22;2482;49.154;8.254;2022-11-28T18:29:44;7.70;99.90
4934;DHT22;2482;49.154;8.254;2022-11-28T18:32:12;7.60;99.90
4934;DHT22;2482;49.154;8.254;2022-11-28T18:34:39;7.60;99.90
4934;DHT22;2482;49.154;8.254;2022-11-28T18:37:06;7.60;99.90
4934;DHT22;2482;49.154;8.254;2022-11-28T18:39:33;7.60;99.90
4934;DHT22;2482;49.154;8.254;2022-11-28T18:42:00;7.60;99.90
4934;DHT22;2482;49.154;8.254;2022-11-28T18:44:27;7.60;99.90
4934;DHT22;2482;49.154;8.254;2022-11-28T18:46:54;7.60;99.90
4934;DHT22;2482;49.154;8.254;2022-11-28T18:49:21;7.60;99.90
4934;DHT22;2482;49.154;8.254;2022-11-28T18:51:48;7.60;99.90
4934;DHT22;2482;49.154;8.254;2022-11-28T18:54:15;7.70;99.90
4934;DHT22;2482;49.154;8.254;2022-11-28T18:56:46;7.60;99.90
4934;DHT22;2482;49.154;8.254;2022-11-28T18:59:14;7.60;99.90
4934;DHT22;2482;49.154;8.254;2022-11-28T19:01:41;7.60;99.90
4934;DHT22;2482;49.154;8.254;2022-11-28T19:04:10;7.70;99.90
4934;DHT22;2482;49.154;8.254;2022-11-28T19:06:39;7.60;99.90
4934;DHT22;2482;49.154;8.254;2022-11-28T19:09:11;7.60;99.90
4934;DHT22;2482;49.154;8.254;2022-11-28T19:11:39;7.70;99.90
4934;DHT22;2482;49.154;8.254;2022-11-28T19:14:09;7.70;99.90
4934;DHT22;2482;49.154;8.254;2022-11-28T19:16:38;7.80;99.90
4934;DHT22;2482;49.154;8.254;2022-11-28T19:19:05;7.80;99.90
4934;DHT22;2482;49.154;8.254;2022-11-28T19:21:33;7.70;99.90
4934;DHT22;2482;49.154;8.254;2022-11-28T19:24:01;7.70;99.90
4934;DHT22;2482;49.154;8.254;2022-11-28T19:26:29;7.60;99.90
4934;DHT22;2482;49.154;8.254;2022-11-28T19:28:57;7.70;99.90
4934;DHT22;2482;49.154;8.254;2022-11-28T19:31:27;7.70;99.90
4934;DHT22;2482;49.154;8.254;2022-11-28T19:34:07;7.70;99.90
4934;DHT22;2482;49.154;8.254;2022-11-28T19:36:41;7.80;99.90
4934;DHT22;2482;49.154;8.254;2022-11-28T19:39:19;7.70;99.90
4934;DHT22;2482;49.154;8.254;2022-11-28T19:41:48;7.80;99.90
4934;DHT22;2482;49.154;8.254;2022-11-28T19:44:16;7.80;99.90
4934;DHT22;2482;49.154;8.254;2022-11-28T19:46:43;7.70;99.90
4934;DHT22;2482;49.154;8.254;2022-11-28T19:49:22;7.70;99.90
4934;DHT22;2482;49.154;8.254;2022-11-28T19:51:49;7.60;99.90
4934;DHT22;2482;49.154;8.254;2022-11-28T19:54:17;7.70;99.90
4934;DHT22;2482;49.154;8.254;2022-11-28T19:56:48;7.60;99.90
4934;DHT22;2482;49.154;8.254;2022-11-28T19:59:15;7.60;99.90
4934;DHT22;2482;49.154;8.254;2022-11-28T20:01:42;7.50;99.90
4934;DHT22;2482;49.154;8.254;2022-11-28T20:04:10;7.40;99.90
4934;DHT22;2482;49.154;8.254;2022-11-28T20:06:36;7.50;99.90
4934;DHT22;2482;49.154;8.254;2022-11-28T20:09:07;7.50;99.90
4934;DHT22;2482;49.154;8.254;2022-11-28T20:11:38;7.60;99.90
4934;DHT22;2482;49.154;8.254;2022-11-28T20:14:14;7.60;99.90
4934;DHT22;2482;49.154;8.254;2022-11-28T20:16:43;7.60;99.90
4934;DHT22;2482;49.154;8.254;2022-11-28T20:19:11;7.60;99.90
4934;DHT22;2482;49.154;8.254;2022-11-28T20:21:40;7.60;99.90
4934;DHT22;2482;49.154;8.254;2022-11-28T20:24:07;7.50;99.90
4934;DHT22;2482;49.154;8.254;2022-11-28T20:26:42;7.50;99.90
4934;DHT22;2482;49.154;8.254;2022-11-28T20:29:13;7.40;99.90
4934;DHT22;2482;49.154;8.254;2022-11-28T20:31:42;7.40;99.90
4934;DHT22;2482;49.154;8.254;2022-11-28T20:34:13;7.40;99.90
4934;DHT22;2482;49.154;8.254;2022-11-28T20:36:41;7.40;99.90
4934;DHT22;2482;49.154;8.254;2022-11-28T20:39:10;7.30;99.90
4934;DHT22;2482;49.154;8.254;2022-11-28T20:41:37;7.40;99.90
4934;DHT22;2482;49.154;8.254;2022-11-28T20:44:05;7.40;99.90